createdAt,value
2023-10-15T12:05:21.866Z,9.50
2023-10-15T12:07:51.650Z,8.80
2023-10-15T12:10:23.113Z,9.30
2023-10-15T12:12:52.088Z,6.30
2023-10-15T12:15:20.318Z,9.10
2023-10-15T12:17:49.050Z,10.00
2023-10-15T12:20:20.632Z,5.50
2023-10-15T12:22:49.352Z,4.00
2023-10-15T12:25:17.561Z,3.30
2023-10-15T12:27:45.835Z,4.50
2023-10-15T12:30:28.820Z,7.10
2023-10-15T12:32:59.753Z,7.20
2023-10-15T12:35:28.842Z,8.50
2023-10-15T12:38:03.801Z,6.80
2023-10-15T12:40:33.473Z,5.30
2023-10-15T12:43:10.135Z,6.60
2023-10-15T12:45:41.480Z,7.50
2023-10-15T12:48:09.836Z,8.40
2023-10-15T12:50:38.573Z,6.80
2023-10-15T12:53:06.839Z,11.00
2023-10-15T12:55:35.610Z,11.50
2023-10-15T12:58:04.262Z,10.00
2023-10-15T13:00:34.179Z,7.90
2023-10-15T13:03:04.794Z,9.10
2023-10-15T13:05:34.249Z,10.00
2023-10-15T13:08:04.542Z,9.60
2023-10-15T13:10:33.733Z,12.30
2023-10-15T13:13:02.760Z,9.60
2023-10-15T13:15:31.057Z,12.10
2023-10-15T13:18:00.624Z,9.70
2023-10-15T13:20:29.085Z,9.60
2023-10-15T13:22:57.525Z,10.60
2023-10-15T13:25:25.714Z,12.20
2023-10-15T13:27:53.949Z,8.20
2023-10-15T13:30:23.842Z,10.20
2023-10-15T13:32:52.312Z,11.10
2023-10-15T13:35:20.842Z,12.00
2023-10-15T13:37:49.511Z,10.10
2023-10-15T13:40:20.116Z,10.20
2023-10-15T13:42:49.207Z,9.80
2023-10-15T13:45:19.553Z,7.30
2023-10-15T13:47:48.233Z,12.40
2023-10-15T13:50:19.926Z,12.80
2023-10-15T13:52:48.986Z,13.90
2023-10-15T13:55:17.723Z,8.90
2023-10-15T13:57:46.088Z,10.60
2023-10-15T14:00:20.956Z,6.70
2023-10-15T14:02:50.531Z,6.40
2023-10-15T14:05:20.014Z,6.00
2023-10-15T14:07:53.774Z,5.10
2023-10-15T14:10:22.057Z,4.90
2023-10-15T14:12:57.246Z,6.00
2023-10-15T14:15:28.488Z,6.60
2023-10-15T14:17:56.620Z,7.90
2023-10-15T14:20:24.837Z,8.90
2023-10-15T14:22:55.954Z,6.40
2023-10-15T14:25:24.293Z,6.30
2023-10-15T14:27:52.438Z,8.60
2023-10-15T14:30:20.865Z,7.90
2023-10-15T14:32:51.231Z,5.60
2023-10-15T14:35:20.043Z,7.80
2023-10-15T14:37:48.287Z,8.10
2023-10-15T14:40:16.415Z,8.30
2023-10-15T14:42:46.043Z,11.30
2023-10-15T14:45:17.440Z,11.30
2023-10-15T14:47:45.779Z,11.20
2023-10-15T14:50:14.539Z,9.50
2023-10-15T14:52:43.266Z,11.60
2023-10-15T14:55:12.165Z,11.90
2023-10-15T14:57:40.339Z,12.20
2023-10-15T15:00:09.669Z,13.30
2023-10-15T15:02:37.987Z,12.10
2023-10-15T15:05:06.452Z,13.40
2023-10-15T15:07:34.555Z,12.30
2023-10-15T15:10:03.153Z,13.30
2023-10-15T15:12:31.525Z,9.20
2023-10-15T15:14:59.903Z,8.90
2023-10-15T15:17:28.183Z,7.60
2023-10-15T15:19:56.657Z,10.10
2023-10-15T15:22:24.782Z,13.40
2023-10-15T15:24:53.521Z,13.10
2023-10-15T15:27:21.821Z,21.90
2023-10-15T15:29:50.402Z,13.50
2023-10-15T15:32:18.583Z,9.70
2023-10-15T15:34:47.239Z,10.10
2023-10-15T15:37:15.764Z,10.10
2023-10-15T15:39:44.850Z,11.20
2023-10-15T15:42:13.052Z,12.30
2023-10-15T15:44:41.282Z,12.70
2023-10-15T15:47:10.123Z,13.40
2023-10-15T15:49:38.523Z,10.70
2023-10-15T15:52:10.829Z,7.60
2023-10-15T15:54:39.386Z,6.30
2023-10-15T15:57:09.504Z,6.80
2023-10-15T15:59:38.100Z,6.90
2023-10-15T16:02:10.308Z,7.10
2023-10-15T16:04:38.669Z,7.90
2023-10-15T16:07:06.897Z,7.20
2023-10-15T16:09:36.117Z,7.20
2023-10-15T16:12:04.359Z,16.50
2023-10-15T16:14:34.159Z,10.90
2023-10-15T16:17:02.531Z,8.80
2023-10-15T16:19:31.312Z,8.60
2023-10-15T16:21:59.389Z,8.80
2023-10-15T16:24:27.593Z,12.10
2023-10-15T16:26:55.827Z,10.00
2023-10-15T16:29:24.025Z,10.10
2023-10-15T16:31:52.314Z,10.20
2023-10-15T16:34:24.752Z,10.40
2023-10-15T16:36:54.143Z,7.80
2023-10-15T16:39:23.638Z,8.90
2023-10-15T16:41:51.832Z,9.70
2023-10-15T16:44:20.858Z,9.00
2023-10-15T16:46:49.203Z,10.30
2023-10-15T16:49:17.534Z,9.90
2023-10-15T16:51:47.171Z,10.00
2023-10-15T16:54:15.415Z,10.50
2023-10-15T16:56:43.565Z,12.80
2023-10-15T16:59:12.961Z,9.30
2023-10-15T17:01:43.946Z,7.90
2023-10-15T17:04:12.070Z,10.40
2023-10-15T17:06:40.262Z,10.70
2023-10-15T17:09:10.206Z,9.90
2023-10-15T17:11:38.640Z,9.20
2023-10-15T17:14:07.450Z,9.00
2023-10-15T17:16:35.548Z,7.50
2023-10-15T17:19:03.692Z,8.60
2023-10-15T17:21:34.784Z,11.40
2023-10-15T17:24:03.280Z,7.10
2023-10-15T17:26:31.508Z,5.40
2023-10-15T17:29:00.824Z,10.10
2023-10-15T17:31:29.019Z,8.80
2023-10-15T17:33:57.108Z,5.80
2023-10-15T17:36:29.316Z,6.40
2023-10-15T17:39:03.503Z,5.50
2023-10-15T17:41:31.744Z,4.50
2023-10-15T17:43:59.913Z,6.90
2023-10-15T17:46:31.476Z,7.50
2023-10-15T17:48:59.719Z,6.80
2023-10-15T17:51:30.673Z,4.70
2023-10-15T17:53:59.198Z,5.40
2023-10-15T17:56:28.339Z,7.50
2023-10-15T17:59:01.622Z,6.40
2023-10-15T18:01:31.214Z,4.00
2023-10-15T18:03:59.473Z,3.80
2023-10-15T18:06:27.882Z,2.60
2023-10-15T18:08:56.113Z,2.20
2023-10-15T18:11:24.664Z,2.60
2023-10-15T18:13:54.137Z,3.10
2023-10-15T18:16:23.411Z,6.30
2023-10-15T18:18:55.419Z,6.50
2023-10-15T18:21:24.400Z,3.80
2023-10-15T18:23:52.589Z,6.00
2023-10-15T18:26:22.413Z,6.90
2023-10-15T18:28:52.367Z,5.80
2023-10-15T18:31:23.415Z,7.40
2023-10-15T18:33:54.759Z,4.20
2023-10-15T18:39:00.477Z,7.70
2023-10-15T18:41:29.949Z,8.70
2023-10-15T18:43:59.843Z,8.50
2023-10-15T18:46:28.141Z,10.30
2023-10-15T18:48:57.918Z,7.70
2023-10-15T18:51:36.327Z,7.00
2023-10-15T18:54:05.769Z,4.90
2023-10-15T18:56:36.346Z,7.80
2023-10-15T18:59:04.793Z,7.90
2023-10-15T19:01:33.333Z,7.50
2023-10-15T19:04:01.792Z,4.70
2023-10-15T19:06:30.688Z,8.10
2023-10-15T19:08:59.032Z,7.80
2023-10-15T19:11:28.577Z,7.80
2023-10-15T19:13:58.612Z,8.70
2023-10-15T19:16:26.869Z,7.10
2023-10-15T19:18:55.634Z,6.30
2023-10-15T19:21:25.849Z,4.40
2023-10-15T19:23:54.382Z,5.80
2023-10-15T19:26:23.273Z,5.00
2023-10-15T19:28:53.705Z,4.10
2023-10-15T19:31:23.209Z,6.10
2023-10-15T19:33:51.691Z,7.30
2023-10-15T19:36:23.219Z,8.10
2023-10-15T19:38:51.582Z,8.50
2023-10-15T19:41:20.404Z,4.70
2023-10-15T19:43:48.618Z,7.00
2023-10-15T19:46:16.839Z,10.40
2023-10-15T19:48:45.046Z,9.20
2023-10-15T19:51:19.351Z,8.10
2023-10-15T19:56:17.249Z,5.20
2023-10-15T19:58:47.728Z,6.60
2023-10-15T20:01:16.471Z,9.10
2023-10-15T20:04:02.816Z,6.90
2023-10-15T20:06:34.843Z,8.80
2023-10-15T20:09:10.845Z,6.90
2023-10-15T20:11:40.042Z,6.60
2023-10-15T20:14:08.330Z,7.50
2023-10-15T20:16:37.024Z,9.30
2023-10-15T20:19:06.820Z,9.60
2023-10-15T20:21:37.561Z,10.30
2023-10-15T20:24:07.270Z,8.10
2023-10-15T20:26:36.391Z,9.00
2023-10-15T20:29:04.648Z,9.20
2023-10-15T20:31:32.842Z,10.00
2023-10-15T20:34:05.118Z,8.60
2023-10-15T20:36:35.691Z,10.10
2023-10-15T20:39:07.806Z,9.50
2023-10-15T20:41:38.741Z,10.30
2023-10-15T20:44:07.020Z,9.60
2023-10-15T20:46:35.463Z,7.40
2023-10-15T20:49:06.198Z,6.50
2023-10-15T20:51:35.081Z,6.00
2023-10-15T20:54:04.443Z,6.30
2023-10-15T20:56:32.602Z,7.40
2023-10-15T20:59:00.704Z,13.00
2023-10-15T21:01:29.079Z,8.40
2023-10-15T21:03:57.356Z,7.20
2023-10-15T21:06:26.418Z,10.50
2023-10-15T21:08:54.633Z,11.10
2023-10-15T21:11:22.791Z,9.50
2023-10-15T21:13:52.404Z,7.90
2023-10-15T21:16:20.678Z,6.50
2023-10-15T21:18:48.874Z,7.10
2023-10-15T21:21:17.065Z,7.70
2023-10-15T21:23:45.249Z,8.50
2023-10-15T21:26:13.347Z,6.40
2023-10-15T21:28:41.728Z,8.00
2023-10-15T21:31:10.036Z,8.40
2023-10-15T21:33:38.295Z,7.40
2023-10-15T21:36:06.959Z,6.30
2023-10-15T21:38:35.014Z,6.20
2023-10-15T21:41:05.430Z,5.20
2023-10-15T21:43:33.472Z,3.50
2023-10-15T21:46:01.766Z,9.80
2023-10-15T21:48:29.877Z,7.20
2023-10-15T21:50:57.969Z,6.70
2023-10-15T21:53:26.099Z,5.70
2023-10-15T21:55:54.362Z,5.70
2023-10-15T21:58:22.458Z,4.10
2023-10-15T22:00:53.410Z,4.10
2023-10-15T22:03:21.735Z,4.10
2023-10-15T22:05:49.960Z,4.90
2023-10-15T22:08:18.653Z,5.20
2023-10-15T22:10:46.809Z,5.60
2023-10-15T22:13:19.697Z,3.40
2023-10-15T22:15:55.910Z,6.30
2023-10-15T22:18:24.581Z,4.90
2023-10-15T22:20:53.916Z,2.60
2023-10-15T22:23:22.655Z,3.70
2023-10-15T22:25:53.118Z,2.80
2023-10-15T22:28:26.551Z,4.60
2023-10-15T22:30:56.319Z,2.70
2023-10-15T22:33:28.216Z,5.70
2023-10-15T22:35:56.360Z,4.10
2023-10-15T22:38:24.458Z,7.00
2023-10-15T22:40:53.190Z,5.40
2023-10-15T22:43:23.100Z,3.60
2023-10-15T22:45:53.122Z,3.10
2023-10-15T22:48:21.377Z,4.40
2023-10-15T22:50:49.533Z,4.90
2023-10-15T22:53:18.213Z,5.70
2023-10-15T22:55:47.720Z,3.30
2023-10-15T22:58:19.242Z,7.70
2023-10-15T23:00:51.383Z,4.10
2023-10-15T23:03:21.296Z,8.20
2023-10-15T23:05:51.281Z,4.50
2023-10-15T23:08:19.737Z,4.50
2023-10-15T23:10:47.916Z,3.80
2023-10-15T23:13:18.956Z,3.80
2023-10-15T23:15:48.710Z,3.60
2023-10-15T23:18:22.113Z,4.50
2023-10-15T23:20:53.548Z,4.50
2023-10-15T23:23:24.454Z,4.30
2023-10-15T23:25:53.684Z,6.00
2023-10-15T23:28:25.283Z,5.70
2023-10-15T23:30:57.679Z,3.00
2023-10-15T23:33:30.467Z,5.50
2023-10-15T23:35:59.760Z,4.00
2023-10-15T23:38:28.335Z,5.00
2023-10-15T23:40:56.536Z,3.60
2023-10-15T23:43:25.592Z,3.90
2023-10-15T23:46:05.865Z,2.20
2023-10-15T23:48:38.588Z,3.40
2023-10-15T23:51:14.286Z,3.00
2023-10-15T23:53:44.383Z,2.50
2023-10-15T23:56:24.104Z,3.50
2023-10-15T23:58:57.547Z,7.20
